Time;durP1;ratioP1;P1;durP2;ratioP2;P2;SDS_P1;SDS_P2;PMS_P1;PMS_P2;Temp;Humidity;BMP_temperature;BMP_pressure;BME280_temperature;BME280_humidity;BME280_pressure;Samples;Min_cycle;Max_cycle;Signal;HPM_P1;HPM_P2
2022/06/10 00:00:28;;;;;;;3.47;0.40;;;12.60;99.90;;;;;;4957626;28;20988;-85
2022/06/10 00:02:55;;;;;;;0.60;0.53;;;12.60;99.90;;;;;;4955478;28;21011;-85
2022/06/10 00:05:25;;;;;;;0.50;0.50;;;12.50;99.90;;;;;;4966364;28;20466;-85
2022/06/10 00:07:53;;;;;;;0.60;0.50;;;12.60;99.90;;;;;;4971828;28;20458;-84
2022/06/10 00:10:22;;;;;;;0.40;0.40;;;12.50;99.90;;;;;;4964382;28;20464;-85
2022/06/10 00:12:50;;;;;;;0.60;0.40;;;12.60;99.90;;;;;;4963661;28;20473;-85
2022/06/10 00:15:19;;;;;;;0.80;0.40;;;12.50;99.90;;;;;;4965083;28;20629;-86
2022/06/10 00:17:46;;;;;;;0.40;0.37;;;12.50;99.90;;;;;;4966229;28;20977;-86
2022/06/10 00:20:16;;;;;;;0.63;0.57;;;12.50;99.90;;;;;;4958203;28;21213;-87
2022/06/10 00:22:43;;;;;;;1.33;0.50;;;12.50;99.90;;;;;;4960523;28;20477;-84
2022/06/10 00:25:10;;;;;;;0.50;0.30;;;12.50;99.90;;;;;;4956833;28;20481;-88
2022/06/10 00:27:38;;;;;;;1.00;0.63;;;12.50;99.90;;;;;;4964926;28;20568;-84
2022/06/10 00:30:07;;;;;;;0.50;0.30;;;12.50;99.90;;;;;;4957966;28;21137;-85
2022/06/10 00:32:36;;;;;;;0.93;0.50;;;12.50;99.90;;;;;;4959095;28;20468;-88
2022/06/10 00:35:03;;;;;;;0.50;0.50;;;12.50;99.90;;;;;;4953701;28;20465;-86
2022/06/10 00:37:31;;;;;;;0.70;0.47;;;12.50;99.90;;;;;;4956485;28;20540;-85
2022/06/10 00:39:58;;;;;;;0.70;0.50;;;12.50;99.90;;;;;;4959608;28;20455;-89
2022/06/10 00:42:26;;;;;;;0.50;0.40;;;12.50;99.90;;;;;;4960204;28;20599;-85
2022/06/10 00:44:54;;;;;;;0.50;0.40;;;12.40;99.90;;;;;;4955842;28;20453;-88
2022/06/10 00:47:25;;;;;;;0.40;0.40;;;12.50;99.90;;;;;;4951174;28;20478;-87
2022/06/10 00:49:57;;;;;;;0.60;0.40;;;12.40;99.90;;;;;;4959531;28;20546;-85
2022/06/10 00:52:31;;;;;;;1.13;0.47;;;12.50;99.90;;;;;;4958499;28;20682;-87
2022/06/10 00:54:59;;;;;;;0.60;0.40;;;12.50;99.90;;;;;;4952540;28;20463;-87
2022/06/10 00:57:32;;;;;;;0.40;0.40;;;12.40;99.90;;;;;;4957199;28;20856;-85
2022/06/10 01:00:01;;;;;;;0.50;0.50;;;12.50;99.90;;;;;;4952517;28;20502;-86
2022/06/10 01:02:31;;;;;;;0.73;0.40;;;12.40;99.90;;;;;;4957129;28;20450;-85
2022/06/10 01:05:01;;;;;;;0.60;0.40;;;12.50;99.90;;;;;;4953771;28;20468;-85
2022/06/10 01:07:32;;;;;;;0.40;0.30;;;12.40;99.90;;;;;;4955100;28;20470;-85
2022/06/10 01:10:01;;;;;;;0.50;0.40;;;12.40;99.90;;;;;;4955812;28;21026;-85
2022/06/10 01:12:54;;;;;;;0.40;0.40;;;12.40;99.90;;;;;;4953142;28;20535;-88
2022/06/10 01:15:35;;;;;;;1.33;0.50;;;12.40;99.90;;;;;;4959111;28;21054;-84
2022/06/10 01:18:22;;;;;;;5.83;0.77;;;12.40;99.90;;;;;;4962247;28;20523;-85
2022/06/10 01:21:07;;;;;;;1.37;0.50;;;12.40;99.90;;;;;;4963898;28;20547;-85
2022/06/10 01:24:13;;;;;;;0.40;0.30;;;12.40;99.90;;;;;;4957484;28;20467;-87
2022/06/10 01:30:09;;;;;;;0.60;0.50;;;12.40;99.90;;;;;;4957522;28;20820;-87
2022/06/10 01:32:45;;;;;;;2.27;0.60;;;12.40;99.90;;;;;;4950893;28;20514;-84
2022/06/10 01:35:22;;;;;;;0.50;0.40;;;12.40;99.90;;;;;;4953903;28;20461;-84
2022/06/10 01:37:58;;;;;;;0.40;0.30;;;12.40;99.90;;;;;;4956625;28;20671;-84
2022/06/10 01:40:34;;;;;;;2.60;0.50;;;12.40;99.90;;;;;;4952348;28;20527;-84
2022/06/10 01:43:08;;;;;;;0.87;0.40;;;12.40;99.90;;;;;;4955431;28;20490;-87
2022/06/10 01:45:40;;;;;;;0.50;0.40;;;12.30;99.90;;;;;;4957521;28;20523;-84
2022/06/10 01:48:16;;;;;;;1.53;0.50;;;12.40;99.90;;;;;;4963169;28;20831;-84
2022/06/10 01:50:49;;;;;;;0.93;0.50;;;12.30;99.90;;;;;;4961954;28;20469;-87
2022/06/10 01:53:24;;;;;;;0.40;0.20;;;12.30;99.90;;;;;;4950168;28;20906;-84
2022/06/10 01:56:01;;;;;;;0.83;0.57;;;12.40;99.90;;;;;;4960623;28;20469;-84
2022/06/10 01:58:35;;;;;;;1.23;0.63;;;12.30;99.90;;;;;;4964187;28;20590;-85
2022/06/10 02:01:05;;;;;;;0.40;0.30;;;12.40;99.90;;;;;;4960396;28;20477;-85
2022/06/10 02:03:37;;;;;;;3.00;0.57;;;12.40;99.90;;;;;;4955543;28;20457;-85
2022/06/10 02:06:09;;;;;;;0.70;0.50;;;12.40;99.90;;;;;;4946243;28;20442;-86
2022/06/10 02:08:41;;;;;;;0.60;0.60;;;12.40;99.90;;;;;;4956527;28;20564;-86
2022/06/10 02:11:12;;;;;;;0.67;0.43;;;12.40;99.90;;;;;;4949356;28;20484;-84
2022/06/10 02:13:43;;;;;;;2.20;0.57;;;12.40;99.90;;;;;;4954399;28;20479;-83
2022/06/10 02:16:15;;;;;;;0.50;0.50;;;12.40;99.90;;;;;;4963636;28;21015;-85
2022/06/10 02:18:50;;;;;;;0.40;0.30;;;12.40;99.90;;;;;;4945165;28;20575;-86
2022/06/10 02:21:24;;;;;;;2.33;0.60;;;12.40;99.90;;;;;;4957186;28;20533;-87
2022/06/10 02:23:57;;;;;;;0.50;0.40;;;12.40;99.90;;;;;;4958611;28;20488;-86
2022/06/10 02:26:26;;;;;;;0.80;0.57;;;12.40;99.90;;;;;;4945408;28;20531;-84
2022/06/10 02:28:57;;;;;;;0.93;0.60;;;12.40;99.90;;;;;;4951886;28;23212;-87
2022/06/10 02:31:34;;;;;;;0.50;0.50;;;12.40;99.90;;;;;;4959658;28;20473;-87
2022/06/10 02:34:03;;;;;;;1.27;0.50;;;12.40;99.90;;;;;;4962580;28;20489;-85
2022/06/10 02:36:36;;;;;;;0.80;0.47;;;12.40;99.90;;;;;;4949861;28;20594;-84
2022/06/10 02:39:09;;;;;;;0.60;0.60;;;12.40;99.90;;;;;;4959976;28;20996;-87
2022/06/10 02:41:43;;;;;;;0.50;0.50;;;12.40;99.90;;;;;;4953636;28;20821;-83
2022/06/10 02:44:18;;;;;;;0.70;0.57;;;12.40;99.90;;;;;;4946586;28;20527;-84
2022/06/10 02:46:56;;;;;;;0.40;0.33;;;12.40;99.90;;;;;;4955867;28;20499;-83
2022/06/10 02:49:24;;;;;;;0.90;0.70;;;12.40;99.90;;;;;;4961129;28;20472;-86
2022/06/10 02:51:51;;;;;;;0.47;0.40;;;12.40;99.90;;;;;;4959517;28;20483;-86
2022/06/10 02:54:30;;;;;;;5.90;0.40;;;12.40;99.90;;;;;;4949142;28;21137;-84
2022/06/10 02:56:58;;;;;;;1.63;0.50;;;12.40;99.90;;;;;;4957402;28;20481;-83
2022/06/10 03:02:24;;;;;;;0.40;0.40;;;12.50;99.90;;;;;;4964706;28;21046;-83
2022/06/10 03:05:07;;;;;;;0.40;0.40;;;12.50;99.90;;;;;;4954210;28;20689;-84
2022/06/10 03:07:55;;;;;;;0.50;0.47;;;12.50;99.90;;;;;;4947829;28;20461;-85
2022/06/10 03:10:28;;;;;;;0.50;0.50;;;12.50;99.90;;;;;;4956419;28;20477;-87
2022/06/10 03:13:19;;;;;;;0.73;0.73;;;12.50;99.90;;;;;;4961591;28;21002;-84
2022/06/10 03:15:59;;;;;;;0.87;0.43;;;12.50;99.90;;;;;;4963461;28;21180;-83
2022/06/10 03:18:36;;;;;;;4.30;0.53;;;12.50;99.90;;;;;;4951306;28;21238;-82
2022/06/10 03:21:12;;;;;;;1.80;0.50;;;12.50;99.90;;;;;;4963467;28;20466;-83
2022/06/10 03:23:49;;;;;;;1.87;0.83;;;12.50;99.90;;;;;;4951690;28;20468;-84
2022/06/10 03:26:26;;;;;;;1.53;0.60;;;12.50;99.90;;;;;;4963136;28;20481;-83
2022/06/10 03:29:01;;;;;;;0.50;0.47;;;12.50;99.90;;;;;;4955407;28;20491;-84
2022/06/10 03:31:34;;;;;;;0.40;0.40;;;12.50;99.90;;;;;;4957294;28;20484;-87
2022/06/10 03:34:05;;;;;;;0.50;0.47;;;12.50;99.90;;;;;;4957631;28;21042;-84
2022/06/10 03:36:35;;;;;;;0.80;0.80;;;12.50;99.90;;;;;;4962041;28;20470;-84
2022/06/10 03:39:02;;;;;;;0.70;0.53;;;12.60;99.90;;;;;;4964726;28;20498;-84
2022/06/10 03:41:32;;;;;;;0.60;0.60;;;12.60;99.90;;;;;;4955097;28;20474;-87
2022/06/10 03:44:05;;;;;;;0.80;0.70;;;12.50;99.90;;;;;;4958187;28;20481;-84
2022/06/10 03:46:34;;;;;;;0.50;0.50;;;12.50;99.90;;;;;;4955752;28;20474;-84
2022/06/10 03:49:07;;;;;;;0.73;0.60;;;12.50;99.90;;;;;;4954402;28;21076;-85
2022/06/10 03:51:35;;;;;;;0.73;0.70;;;12.60;99.90;;;;;;4962203;28;20461;-84
2022/06/10 03:54:02;;;;;;;0.80;0.77;;;12.60;99.90;;;;;;4959889;28;20478;-87
2022/06/10 03:56:31;;;;;;;0.80;0.50;;;12.60;99.90;;;;;;4952798;28;20481;-85
2022/06/10 03:58:58;;;;;;;0.93;0.93;;;12.60;99.90;;;;;;4961038;28;20491;-84
2022/06/10 04:01:25;;;;;;;0.90;0.90;;;12.60;99.90;;;;;;4961722;28;20470;-84
2022/06/10 04:03:53;;;;;;;0.50;0.50;;;12.60;99.90;;;;;;4963080;28;20473;-85
2022/06/10 04:06:20;;;;;;;0.40;0.40;;;12.60;99.90;;;;;;4957277;28;20461;-83
2022/06/10 04:08:49;;;;;;;0.77;0.70;;;12.60;99.90;;;;;;4964155;28;20514;-84
2022/06/10 04:11:16;;;;;;;1.10;0.80;;;12.60;99.90;;;;;;4959235;28;20508;-84
2022/06/10 04:13:44;;;;;;;0.80;0.40;;;12.60;99.90;;;;;;4959705;28;20465;-82
2022/06/10 04:16:11;;;;;;;1.40;0.50;;;12.50;99.90;;;;;;4962489;28;21969;-83
2022/06/10 04:18:38;;;;;;;0.70;0.53;;;12.50;99.90;;;;;;4971626;28;20461;-85
2022/06/10 04:21:05;;;;;;;1.03;0.90;;;12.60;99.90;;;;;;4958113;28;20974;-83
2022/06/10 04:23:32;;;;;;;3.03;0.60;;;12.50;99.90;;;;;;4970150;28;20510;-82
2022/06/10 04:26:01;;;;;;;1.70;0.77;;;12.50;99.90;;;;;;4961678;28;20553;-83
2022/06/10 04:28:28;;;;;;;0.90;0.80;;;12.50;99.90;;;;;;4961023;28;20452;-83
2022/06/10 04:30:56;;;;;;;0.80;0.50;;;12.50;99.90;;;;;;4965268;28;20982;-88
2022/06/10 04:33:23;;;;;;;1.37;0.90;;;12.60;99.90;;;;;;4963117;28;20552;-83
2022/06/10 04:35:51;;;;;;;1.13;0.60;;;12.60;99.90;;;;;;4965743;28;20458;-85
2022/06/10 04:38:21;;;;;;;0.70;0.70;;;12.60;99.90;;;;;;4964040;28;20473;-84
2022/06/10 04:40:49;;;;;;;0.80;0.80;;;12.60;99.90;;;;;;4959560;28;20495;-84
2022/06/10 04:43:17;;;;;;;0.80;0.63;;;12.60;99.90;;;;;;4954952;28;20446;-87
2022/06/10 04:45:47;;;;;;;0.87;0.80;;;12.60;99.90;;;;;;4956277;28;21106;-87
2022/06/10 04:48:14;;;;;;;1.40;1.00;;;12.60;99.90;;;;;;4960550;28;20461;-87
2022/06/10 04:50:43;;;;;;;2.27;0.50;;;12.60;99.90;;;;;;4958626;28;20507;-84
2022/06/10 04:53:10;;;;;;;0.97;0.70;;;12.70;99.90;;;;;;4955677;28;20463;-83
2022/06/10 04:55:37;;;;;;;1.13;0.90;;;12.70;99.90;;;;;;4955222;28;20465;-84
2022/06/10 04:58:05;;;;;;;0.57;0.57;;;12.70;99.90;;;;;;4959366;28;20495;-83
2022/06/10 05:00:37;;;;;;;1.13;0.67;;;12.70;99.90;;;;;;4960675;28;20498;-86
2022/06/10 05:03:04;;;;;;;0.50;0.50;;;12.80;99.90;;;;;;4961942;28;20473;-85
2022/06/10 05:05:32;;;;;;;0.60;0.60;;;12.70;99.90;;;;;;4978753;28;20468;-83
2022/06/10 05:07:59;;;;;;;0.80;0.80;;;12.70;99.90;;;;;;4959269;28;20971;-86
2022/06/10 05:10:28;;;;;;;1.07;0.50;;;12.80;99.90;;;;;;4964196;28;20544;-84
2022/06/10 05:12:55;;;;;;;1.03;0.70;;;12.80;99.90;;;;;;4957160;28;20476;-83
2022/06/10 05:15:22;;;;;;;1.27;1.17;;;12.80;99.90;;;;;;4961060;28;20488;-85
2022/06/10 05:17:52;;;;;;;1.07;0.70;;;12.80;99.90;;;;;;4959173;28;20484;-83
2022/06/10 05:20:23;;;;;;;0.70;0.50;;;12.80;99.90;;;;;;4955006;28;20854;-83
2022/06/10 05:22:51;;;;;;;1.20;0.70;;;12.70;99.90;;;;;;4963592;28;20462;-85
2022/06/10 05:25:18;;;;;;;2.47;1.33;;;12.80;99.90;;;;;;4963663;28;21169;-84
2022/06/10 05:27:46;;;;;;;1.27;1.17;;;12.80;99.90;;;;;;4962040;28;20454;-87
2022/06/10 05:30:17;;;;;;;1.60;1.50;;;12.70;99.90;;;;;;4959351;28;21239;-83
2022/06/10 05:32:44;;;;;;;1.00;0.87;;;12.70;99.90;;;;;;4961230;28;20468;-86
2022/06/10 05:35:13;;;;;;;1.27;1.17;;;12.70;99.90;;;;;;4960032;28;20546;-85
2022/06/10 05:37:41;;;;;;;0.60;0.43;;;12.70;99.90;;;;;;4960444;28;20493;-85
2022/06/10 05:40:09;;;;;;;1.07;0.97;;;12.70;99.90;;;;;;4958086;28;20487;-83
2022/06/10 05:42:36;;;;;;;0.77;0.60;;;12.70;99.90;;;;;;4965191;28;20554;-82
2022/06/10 05:45:03;;;;;;;0.57;0.53;;;12.70;99.90;;;;;;4956416;28;20481;-83
2022/06/10 05:47:33;;;;;;;0.63;0.63;;;12.70;99.90;;;;;;4967381;28;20488;-83
2022/06/10 05:50:03;;;;;;;1.37;0.60;;;12.70;99.90;;;;;;4958414;28;20483;-83
2022/06/10 05:52:33;;;;;;;1.03;0.60;;;12.70;99.90;;;;;;4953358;28;20473;-83
2022/06/10 05:55:02;;;;;;;0.60;0.60;;;12.70;99.90;;;;;;4960601;28;20457;-86
2022/06/10 05:57:31;;;;;;;1.10;1.00;;;12.60;99.90;;;;;;4969104;28;20498;-83
2022/06/10 05:59:58;;;;;;;0.80;0.70;;;12.60;99.90;;;;;;4954100;28;20585;-83
2022/06/10 06:02:25;;;;;;;3.30;0.97;;;12.60;99.90;;;;;;4961677;28;20475;-84
2022/06/10 06:04:53;;;;;;;1.90;0.87;;;12.70;99.90;;;;;;4955595;28;20479;-84
2022/06/10 06:07:22;;;;;;;0.60;0.60;;;12.70;99.90;;;;;;4960551;28;20543;-85
2022/06/10 06:09:51;;;;;;;0.53;0.53;;;12.70;99.90;;;;;;4956446;28;20473;-84
2022/06/10 06:12:19;;;;;;;0.90;0.90;;;12.80;99.90;;;;;;4962743;28;20506;-86
2022/06/10 06:14:46;;;;;;;0.93;0.60;;;12.80;99.90;;;;;;4955977;28;20467;-84
2022/06/10 06:17:14;;;;;;;1.20;0.70;;;12.80;99.90;;;;;;4960803;28;20935;-85
2022/06/10 06:19:42;;;;;;;3.47;1.30;;;12.70;99.90;;;;;;4961343;28;20490;-84
2022/06/10 06:22:09;;;;;;;0.93;0.67;;;12.70;99.90;;;;;;4960316;28;20477;-84
2022/06/10 06:24:38;;;;;;;1.13;0.97;;;12.70;99.90;;;;;;4959049;28;20524;-85
2022/06/10 06:27:07;;;;;;;1.00;0.83;;;12.80;99.90;;;;;;4961681;28;20475;-84
2022/06/10 06:29:35;;;;;;;1.73;1.63;;;12.80;99.90;;;;;;4958966;28;20463;-83
2022/06/10 06:32:02;;;;;;;1.40;0.70;;;12.80;99.90;;;;;;4960614;28;20455;-85
2022/06/10 06:34:29;;;;;;;1.03;0.87;;;12.80;99.90;;;;;;4965492;28;20544;-84
2022/06/10 06:36:57;;;;;;;1.20;0.97;;;12.90;99.90;;;;;;4956960;28;20473;-86
2022/06/10 06:39:26;;;;;;;1.60;1.50;;;12.90;99.90;;;;;;4961690;28;21034;-83
2022/06/10 06:41:54;;;;;;;1.17;1.07;;;12.80;99.90;;;;;;4963879;28;20918;-84
2022/06/10 06:44:23;;;;;;;3.40;0.60;;;12.90;99.90;;;;;;4959320;28;20477;-84
2022/06/10 06:46:50;;;;;;;2.53;0.97;;;12.90;99.90;;;;;;4964075;28;20477;-86
2022/06/10 06:49:20;;;;;;;3.63;1.00;;;12.90;99.90;;;;;;4955736;28;20470;-83
2022/06/10 06:51:47;;;;;;;3.67;1.20;;;12.80;99.90;;;;;;4961531;28;20527;-84
2022/06/10 06:54:15;;;;;;;1.10;0.80;;;12.90;99.90;;;;;;4960060;28;20554;-83
2022/06/10 06:56:42;;;;;;;0.60;0.60;;;12.90;99.90;;;;;;4963813;28;20612;-83
2022/06/10 06:59:11;;;;;;;0.73;0.67;;;12.90;99.90;;;;;;4965908;28;20510;-85
2022/06/10 07:01:39;;;;;;;1.30;1.20;;;12.90;99.90;;;;;;4963837;28;20485;-84
2022/06/10 07:04:07;;;;;;;0.73;0.70;;;13.00;99.90;;;;;;4963010;28;20450;-84
2022/06/10 07:06:35;;;;;;;0.60;0.60;;;13.00;99.90;;;;;;4963647;28;20471;-87
2022/06/10 07:09:02;;;;;;;1.17;1.07;;;13.10;99.90;;;;;;4960675;28;20594;-84
2022/06/10 07:11:31;;;;;;;1.30;0.80;;;13.20;99.90;;;;;;4962849;28;20486;-82
2022/06/10 07:13:58;;;;;;;0.60;0.57;;;13.30;99.90;;;;;;4958590;28;20461;-84
2022/06/10 07:16:25;;;;;;;1.07;0.97;;;13.40;99.90;;;;;;4955573;28;20499;-86
2022/06/10 07:18:53;;;;;;;0.80;0.80;;;13.40;99.90;;;;;;4970595;28;21135;-84
2022/06/10 07:21:21;;;;;;;0.87;0.87;;;13.60;99.90;;;;;;4982365;28;20500;-85
2022/06/10 07:23:48;;;;;;;1.83;1.23;;;13.70;99.90;;;;;;4967572;28;20953;-84
2022/06/10 07:26:16;;;;;;;0.77;0.67;;;13.60;99.90;;;;;;4966368;28;20472;-83
2022/06/10 07:28:43;;;;;;;0.60;0.60;;;13.80;99.90;;;;;;4955549;28;20550;-86
2022/06/10 07:31:11;;;;;;;0.80;0.80;;;13.90;99.90;;;;;;4959403;28;20556;-84
2022/06/10 07:33:38;;;;;;;1.60;1.50;;;14.00;99.90;;;;;;4964255;28;20579;-85
2022/06/10 07:36:07;;;;;;;1.00;1.00;;;14.10;99.90;;;;;;4966113;28;20456;-82
2022/06/10 07:38:35;;;;;;;1.30;1.07;;;14.30;99.90;;;;;;4962745;28;21272;-87
2022/06/10 07:43:46;;;;;;;3.03;1.30;;;14.70;99.90;;;;;;4957174;28;20449;-85
2022/06/10 07:46:16;;;;;;;2.00;1.70;;;14.90;99.90;;;;;;4962448;28;20476;-85
2022/06/10 07:48:43;;;;;;;1.47;0.80;;;14.90;99.90;;;;;;4963878;28;20468;-86
2022/06/10 07:51:12;;;;;;;1.27;1.13;;;15.10;99.90;;;;;;4960949;28;20456;-84
2022/06/10 07:53:41;;;;;;;5.30;1.60;;;15.20;99.90;;;;;;4963859;28;20542;-85
2022/06/10 07:56:09;;;;;;;1.10;1.00;;;15.50;99.90;;;;;;4961286;28;20471;-84
2022/06/10 07:58:37;;;;;;;1.10;1.00;;;15.70;99.90;;;;;;4964582;28;20928;-85
2022/06/10 08:01:04;;;;;;;2.00;1.70;;;15.70;99.90;;;;;;4958831;28;21196;-85
2022/06/10 08:03:31;;;;;;;1.60;1.07;;;15.80;99.90;;;;;;4965091;28;20476;-85
2022/06/10 08:05:59;;;;;;;1.57;1.00;;;15.80;99.90;;;;;;4960049;28;20541;-86
2022/06/10 08:08:27;;;;;;;1.40;1.30;;;15.80;99.90;;;;;;4953499;28;20458;-84
2022/06/10 08:10:55;;;;;;;1.40;1.03;;;16.10;99.90;;;;;;4962267;28;20466;-85
2022/06/10 08:13:23;;;;;;;1.20;1.10;;;16.30;99.90;;;;;;4958772;28;20469;-87
2022/06/10 08:15:50;;;;;;;1.17;1.10;;;16.50;99.90;;;;;;4964648;28;20996;-86
2022/06/10 08:18:20;;;;;;;3.00;1.00;;;16.60;99.90;;;;;;4959134;28;20444;-85
2022/06/10 08:23:35;;;;;;;1.80;1.37;;;16.70;99.90;;;;;;4959437;28;20457;-86
2022/06/10 08:26:06;;;;;;;1.33;0.90;;;16.80;99.90;;;;;;4960487;28;21019;-85
2022/06/10 08:28:34;;;;;;;1.93;1.40;;;16.80;99.90;;;;;;4961729;28;20469;-85
2022/06/10 08:31:01;;;;;;;0.97;0.97;;;16.80;99.90;;;;;;4960707;28;20919;-86
2022/06/10 08:33:28;;;;;;;1.13;1.00;;;16.80;99.90;;;;;;4962029;28;20479;-85
2022/06/10 08:35:55;;;;;;;1.20;1.10;;;16.80;99.90;;;;;;4961901;28;20471;-86
2022/06/10 08:38:23;;;;;;;0.87;0.87;;;17.00;99.90;;;;;;4961986;28;20472;-85
2022/06/10 08:40:56;;;;;;;1.20;1.10;;;17.40;99.90;;;;;;4959029;28;20496;-85
2022/06/10 08:43:36;;;;;;;1.10;1.00;;;17.50;99.90;;;;;;4960144;28;20595;-83
2022/06/10 08:46:13;;;;;;;3.60;0.97;;;17.40;99.90;;;;;;4961635;28;20471;-84
2022/06/10 08:48:57;;;;;;;2.67;1.40;;;17.30;99.90;;;;;;4963066;28;20467;-84
2022/06/10 08:51:31;;;;;;;2.00;1.30;;;17.10;99.90;;;;;;4962605;28;20602;-83
2022/06/10 08:54:09;;;;;;;1.57;1.00;;;17.20;99.90;;;;;;4958476;28;20544;-85
2022/06/10 08:56:40;;;;;;;0.80;0.80;;;17.10;99.90;;;;;;4960511;28;20503;-83
2022/06/10 08:59:17;;;;;;;1.13;1.10;;;17.10;99.90;;;;;;4960610;28;20467;-84
2022/06/10 09:01:51;;;;;;;1.20;1.10;;;17.40;99.90;;;;;;4961626;28;21056;-83
2022/06/10 09:04:30;;;;;;;3.27;1.47;;;17.70;99.90;;;;;;4961502;28;20476;-83
2022/06/10 09:07:01;;;;;;;2.30;1.13;;;17.60;99.90;;;;;;4961960;28;20498;-84
2022/06/10 09:09:32;;;;;;;0.97;0.90;;;17.80;99.90;;;;;;4959996;28;21210;-84
2022/06/10 09:12:11;;;;;;;1.40;1.30;;;17.80;99.90;;;;;;4957234;28;20483;-83
2022/06/10 09:14:39;;;;;;;1.13;1.03;;;17.80;99.90;;;;;;4960209;28;20491;-84
2022/06/10 09:17:11;;;;;;;1.30;1.30;;;17.90;99.90;;;;;;4963284;28;20463;-83
2022/06/10 09:19:51;;;;;;;1.33;1.23;;;17.80;99.90;;;;;;4962569;28;20472;-83
2022/06/10 09:22:24;;;;;;;1.93;1.83;;;18.10;99.90;;;;;;4961388;28;20592;-83
2022/06/10 09:24:59;;;;;;;1.93;0.90;;;18.00;99.90;;;;;;4962973;28;20455;-83
2022/06/10 09:27:31;;;;;;;4.07;1.53;;;17.80;99.90;;;;;;4962127;28;21386;-84
2022/06/10 09:30:03;;;;;;;1.93;1.70;;;17.60;99.90;;;;;;4963396;28;20461;-84
2022/06/10 09:32:44;;;;;;;1.93;1.43;;;17.70;99.90;;;;;;4962825;28;20460;-83
2022/06/10 09:35:18;;;;;;;3.13;1.33;;;17.60;99.90;;;;;;4960065;28;20483;-83
2022/06/10 09:37:54;;;;;;;2.87;0.90;;;17.60;99.90;;;;;;4960452;28;20483;-83
2022/06/10 09:40:38;;;;;;;2.33;1.20;;;17.90;99.90;;;;;;4960526;28;20509;-83
2022/06/10 09:43:44;;;;;;;1.53;1.07;;;18.00;99.90;;;;;;4963798;28;20471;-83
2022/06/10 09:46:26;;;;;;;1.47;0.97;;;17.90;99.90;;;;;;4955368;28;20518;-83
2022/06/10 09:49:23;;;;;;;1.40;1.30;;;18.00;99.90;;;;;;4962374;28;20960;-83
2022/06/10 09:52:00;;;;;;;1.27;1.17;;;17.90;99.90;;;;;;4955665;28;20476;-86
2022/06/10 09:54:48;;;;;;;1.20;1.10;;;18.00;99.90;;;;;;4959976;28;20525;-83
2022/06/10 09:57:45;;;;;;;1.17;1.07;;;18.20;99.90;;;;;;4951356;28;20547;-85
2022/06/10 10:00:18;;;;;;;1.30;1.20;;;18.00;99.90;;;;;;4957397;28;20616;-84
2022/06/10 10:02:58;;;;;;;1.57;1.30;;;18.00;99.90;;;;;;4956108;28;20515;-84
2022/06/10 10:05:41;;;;;;;3.03;1.17;;;18.00;99.90;;;;;;4954846;28;20468;-83
2022/06/10 10:08:17;;;;;;;4.07;1.10;;;18.20;99.90;;;;;;4955885;28;20468;-83
2022/06/10 10:10:52;;;;;;;0.90;0.83;;;18.50;99.90;;;;;;4958813;28;20472;-86
2022/06/10 10:13:49;;;;;;;1.20;1.10;;;18.80;99.90;;;;;;4958177;28;20464;-83
2022/06/10 10:16:28;;;;;;;1.37;1.27;;;18.90;99.90;;;;;;4952486;28;20461;-85
2022/06/10 10:19:08;;;;;;;1.00;0.90;;;19.00;99.90;;;;;;4961939;28;20669;-84
2022/06/10 10:21:45;;;;;;;1.60;1.23;;;19.00;99.90;;;;;;4974709;28;20465;-83
2022/06/10 10:24:18;;;;;;;2.53;1.30;;;19.30;99.90;;;;;;4971210;28;20448;-84
2022/06/10 10:26:47;;;;;;;2.63;1.97;;;19.50;99.90;;;;;;4961435;28;20469;-83
2022/06/10 10:29:19;;;;;;;1.77;1.10;;;19.70;99.90;;;;;;4964161;28;20468;-84
2022/06/10 10:31:53;;;;;;;1.50;1.03;;;19.70;99.90;;;;;;4961386;28;20892;-83
2022/06/10 10:34:24;;;;;;;2.03;1.53;;;19.70;99.90;;;;;;4960465;28;20543;-84
2022/06/10 10:36:53;;;;;;;1.60;1.50;;;19.40;99.90;;;;;;4958258;28;21144;-85
2022/06/10 10:39:30;;;;;;;1.40;1.30;;;19.70;99.90;;;;;;4962626;28;20457;-84
2022/06/10 10:42:00;;;;;;;1.50;1.40;;;19.50;99.90;;;;;;4961230;28;20501;-87
2022/06/10 10:44:39;;;;;;;1.33;1.13;;;19.90;99.90;;;;;;4958557;28;20551;-89
2022/06/10 10:47:21;;;;;;;1.90;1.17;;;20.30;99.90;;;;;;4954432;28;20548;-85
2022/06/10 10:49:52;;;;;;;1.37;1.27;;;20.30;99.90;;;;;;4957178;28;20468;-87
2022/06/10 10:52:23;;;;;;;1.27;1.20;;;20.30;99.90;;;;;;4957185;28;20499;-87
2022/06/10 10:54:53;;;;;;;1.57;1.47;;;20.20;99.90;;;;;;4962569;28;20512;-87
2022/06/10 10:57:34;;;;;;;1.97;1.63;;;19.90;99.90;;;;;;4957016;28;20547;-88
2022/06/10 11:00:30;;;;;;;4.47;1.40;;;19.80;99.90;;;;;;4951185;28;21009;-87
2022/06/10 11:03:02;;;;;;;1.40;1.30;;;19.80;99.90;;;;;;4960778;28;20493;-87
2022/06/10 11:05:35;;;;;;;1.63;1.53;;;19.60;99.90;;;;;;4954075;28;20560;-86
2022/06/10 11:08:23;;;;;;;3.23;1.57;;;19.60;99.90;;;;;;4960881;28;20503;-88
2022/06/10 11:11:14;;;;;;;1.67;1.53;;;19.90;99.90;;;;;;4957777;28;20818;-86
2022/06/10 11:13:51;;;;;;;1.43;1.27;;;20.20;99.90;;;;;;4949906;28;20549;-87
2022/06/10 11:16:34;;;;;;;3.43;1.53;;;20.10;99.90;;;;;;4954439;28;20450;-87
2022/06/10 11:19:20;;;;;;;2.10;1.93;;;20.20;99.90;;;;;;4955227;28;20503;-87
2022/06/10 11:21:57;;;;;;;1.30;1.10;;;20.70;99.90;;;;;;4961999;28;20490;-87
2022/06/10 11:24:27;;;;;;;1.30;1.07;;;21.00;99.90;;;;;;4964560;28;20470;-87
2022/06/10 11:26:56;;;;;;;1.70;1.60;;;21.10;99.90;;;;;;4959406;28;20452;-88
2022/06/10 11:29:24;;;;;;;3.73;1.77;;;21.10;99.90;;;;;;4958719;28;20458;-87
2022/06/10 11:31:56;;;;;;;1.93;1.83;;;20.60;99.90;;;;;;4955498;28;20497;-87
2022/06/10 11:34:29;;;;;;;1.20;1.10;;;20.60;99.90;;;;;;4953876;28;20575;-86
2022/06/10 11:36:56;;;;;;;4.30;1.77;;;20.50;99.90;;;;;;4964389;28;20472;-89
2022/06/10 11:39:27;;;;;;;2.37;2.07;;;20.70;99.90;;;;;;4962095;28;20569;-89
2022/06/10 11:42:08;;;;;;;1.73;1.40;;;20.60;99.90;;;;;;4961299;28;20566;-88
2022/06/10 11:44:41;;;;;;;2.30;1.33;;;20.50;99.90;;;;;;4965437;28;20448;-87
2022/06/10 11:47:17;;;;;;;2.40;1.40;;;20.60;99.90;;;;;;4962826;28;20546;-86
2022/06/10 11:49:58;;;;;;;1.47;1.20;;;20.20;99.90;;;;;;4959488;28;20463;-87
2022/06/10 11:52:31;;;;;;;1.63;1.17;;;20.30;99.90;;;;;;4956664;28;20468;-89
2022/06/10 11:55:05;;;;;;;1.10;1.00;;;20.40;99.90;;;;;;4961157;28;20458;-88
2022/06/10 12:00:31;;;;;;;1.80;1.00;;;20.70;99.90;;;;;;4957967;28;20456;-87
2022/06/10 12:03:07;;;;;;;1.60;1.13;;;20.70;99.90;;;;;;4960180;28;20833;-86
2022/06/10 12:05:45;;;;;;;3.60;1.03;;;20.20;99.90;;;;;;4961233;28;20466;-87
2022/06/10 12:08:30;;;;;;;2.37;1.63;;;20.40;99.90;;;;;;4961665;28;20499;-89
2022/06/10 12:11:02;;;;;;;1.20;0.90;;;20.70;99.90;;;;;;4964494;28;20448;-89
2022/06/10 12:13:37;;;;;;;3.30;1.13;;;21.00;99.90;;;;;;4963048;28;20472;-89
2022/06/10 12:16:06;;;;;;;1.20;1.10;;;21.10;99.90;;;;;;4958904;28;20518;-86
2022/06/10 12:18:41;;;;;;;1.40;1.30;;;21.60;99.90;;;;;;4960760;28;20883;-87
2022/06/10 12:21:17;;;;;;;1.57;1.47;;;22.20;99.90;;;;;;4962387;28;20445;-87
2022/06/10 12:23:47;;;;;;;2.10;1.20;;;22.60;99.90;;;;;;4962939;28;20463;-89
2022/06/10 12:26:27;;;;;;;1.57;1.00;;;21.90;99.20;;;;;;4961548;28;20476;-86
2022/06/10 12:28:58;;;;;;;1.73;1.20;;;21.50;99.90;;;;;;4962951;28;21030;-87
2022/06/10 12:31:38;;;;;;;1.63;1.10;;;21.30;99.90;;;;;;4962472;28;20452;-87
2022/06/10 12:34:16;;;;;;;3.50;1.30;;;21.60;99.90;;;;;;4954613;28;20499;-89
2022/06/10 12:36:49;;;;;;;1.03;1.00;;;21.70;99.90;;;;;;4956288;28;20464;-88
2022/06/10 12:39:22;;;;;;;1.03;1.03;;;21.50;99.90;;;;;;4963164;28;20479;-88
2022/06/10 12:41:53;;;;;;;1.77;1.10;;;21.40;99.90;;;;;;4961677;28;20519;-88
2022/06/10 12:44:25;;;;;;;2.40;1.20;;;21.20;99.90;;;;;;4961562;28;20513;-88
2022/06/10 12:46:55;;;;;;;3.10;1.83;;;21.00;99.90;;;;;;4959431;28;20574;-88
2022/06/10 12:49:31;;;;;;;1.57;1.47;;;21.10;99.90;;;;;;4962882;28;20499;-88
2022/06/10 12:52:23;;;;;;;1.27;1.17;;;21.20;99.90;;;;;;4958526;28;20487;-87
2022/06/10 12:54:55;;;;;;;1.70;1.10;;;20.90;99.90;;;;;;4964096;28;20461;-89
2022/06/10 12:57:36;;;;;;;1.10;1.00;;;21.10;99.90;;;;;;4963227;28;20487;-88
2022/06/10 13:00:33;;;;;;;1.33;1.13;;;21.30;99.90;;;;;;4960355;28;20846;-88
2022/06/10 13:03:33;;;;;;;1.00;0.90;;;21.00;99.90;;;;;;4955970;28;20518;-88
2022/06/10 13:06:19;;;;;;;1.17;1.10;;;21.30;99.90;;;;;;4958264;28;20472;-89
2022/06/10 13:08:53;;;;;;;1.73;1.00;;;21.50;99.90;;;;;;4952653;28;20468;-89
2022/06/10 13:11:40;;;;;;;1.10;0.87;;;21.20;99.90;;;;;;4958668;28;20463;-89
2022/06/10 13:14:43;;;;;;;1.33;1.23;;;21.30;99.90;;;;;;4965616;28;20468;-89
2022/06/10 13:17:27;;;;;;;1.00;0.90;;;21.40;99.90;;;;;;4944981;28;20461;-89
2022/06/10 13:20:16;;;;;;;0.90;0.80;;;21.70;99.70;;;;;;4957194;28;20474;-90
2022/06/10 13:22:43;;;;;;;1.53;1.43;;;21.60;99.90;;;;;;4967736;28;21064;-89
2022/06/10 13:25:23;;;;;;;1.27;1.03;;;21.90;99.90;;;;;;4963194;28;20881;-86
2022/06/10 13:27:51;;;;;;;1.30;1.10;;;21.80;99.80;;;;;;4959836;28;20468;-87
2022/06/10 13:30:25;;;;;;;0.67;0.67;;;21.80;98.70;;;;;;4961589;28;20463;-88